Time;durP1;ratioP1;P1;durP2;ratioP2;P2;SDS_P1;SDS_P2;PMS_P1;PMS_P2;Temp;Humidity;BMP_temperature;BMP_pressure;BME280_temperature;BME280_humidity;BME280_pressure;Samples;Min_cycle;Max_cycle;Signal;HPM_P1;HPM_P2
2022/11/29 00:00:49;;;;;;;62.23;34.23;;;5.00;99.90;;;;;;6248726;28;20502;-61
2022/11/29 00:03:53;;;;;;;57.83;34.70;;;5.00;99.90;;;;;;6249434;28;20490;-60
2022/11/29 00:06:57;;;;;;;68.73;38.67;;;5.10;99.90;;;;;;6249119;28;20490;-60
2022/11/29 00:10:00;;;;;;;72.90;35.73;;;5.10;99.90;;;;;;6249201;28;20489;-60
2022/11/29 00:13:04;;;;;;;67.43;37.00;;;5.10;99.90;;;;;;6249012;28;20471;-60
2022/11/29 00:16:10;;;;;;;61.30;37.07;;;5.20;99.90;;;;;;6249185;28;20502;-61
2022/11/29 00:19:14;;;;;;;61.10;32.23;;;5.10;99.90;;;;;;6249054;28;20488;-60
2022/11/29 00:22:17;;;;;;;61.40;32.77;;;5.10;99.90;;;;;;6248834;28;20463;-60
2022/11/29 00:25:20;;;;;;;61.87;34.60;;;5.10;99.90;;;;;;6248245;28;20487;-61
2022/11/29 00:28:23;;;;;;;66.50;35.00;;;5.10;99.90;;;;;;6248869;28;20466;-60
2022/11/29 00:31:31;;;;;;;70.30;35.30;;;5.10;99.90;;;;;;6248688;28;20467;-60
2022/11/29 00:34:34;;;;;;;63.47;35.53;;;5.00;99.90;;;;;;6249424;28;20434;-61
2022/11/29 00:37:37;;;;;;;61.53;33.83;;;5.00;99.90;;;;;;6248897;28;20452;-60
2022/11/29 00:40:40;;;;;;;64.17;34.57;;;5.00;99.90;;;;;;6247572;28;20782;-60
2022/11/29 00:43:44;;;;;;;61.40;34.70;;;5.00;99.90;;;;;;6247565;28;20509;-61
2022/11/29 00:46:49;;;;;;;72.37;34.07;;;5.00;99.90;;;;;;6248094;28;20816;-61
2022/11/29 00:49:52;;;;;;;69.47;35.93;;;5.00;99.90;;;;;;6251325;28;20830;-61
2022/11/29 00:52:55;;;;;;;61.03;35.00;;;5.00;99.90;;;;;;6251740;28;20786;-61
2022/11/29 00:55:58;;;;;;;68.23;34.40;;;5.10;99.90;;;;;;6252475;28;20586;-61
2022/11/29 00:59:01;;;;;;;68.47;34.63;;;5.00;99.90;;;;;;6262170;28;20805;-60
2022/11/29 01:02:06;;;;;;;64.43;33.80;;;4.90;99.90;;;;;;6266878;28;20891;-60
2022/11/29 01:05:09;;;;;;;79.47;36.10;;;4.90;99.90;;;;;;6256023;28;20471;-61
2022/11/29 01:08:13;;;;;;;68.17;35.33;;;4.90;99.90;;;;;;6265165;28;20478;-61
2022/11/29 01:11:18;;;;;;;66.40;34.97;;;5.00;99.90;;;;;;6270219;28;20489;-61
2022/11/29 01:14:22;;;;;;;79.33;39.20;;;4.90;99.90;;;;;;6264676;28;20473;-61
2022/11/29 01:17:27;;;;;;;70.87;35.17;;;4.80;99.90;;;;;;6267318;28;20481;-61
2022/11/29 01:20:30;;;;;;;76.07;37.13;;;4.90;99.90;;;;;;6254609;28;20529;-61
2022/11/29 01:23:34;;;;;;;78.60;36.77;;;4.90;99.90;;;;;;6266592;28;20483;-61
2022/11/29 01:26:37;;;;;;;66.27;33.10;;;5.00;99.90;;;;;;6266021;28;20996;-61
2022/11/29 01:29:41;;;;;;;67.20;34.20;;;4.90;99.90;;;;;;6265820;28;20957;-61
2022/11/29 01:32:45;;;;;;;75.10;34.40;;;4.90;99.90;;;;;;6264366;28;20470;-61
2022/11/29 01:35:49;;;;;;;77.53;38.23;;;4.80;99.90;;;;;;6266386;28;20478;-61
2022/11/29 01:38:53;;;;;;;65.37;36.33;;;4.80;99.90;;;;;;6259534;28;20471;-61
2022/11/29 01:41:56;;;;;;;68.20;33.87;;;4.90;99.90;;;;;;6258737;28;20955;-61
2022/11/29 01:45:07;;;;;;;95.60;44.60;;;5.00;99.90;;;;;;6263224;28;20962;-61
2022/11/29 01:48:14;;;;;;;76.37;36.97;;;5.00;99.90;;;;;;6260346;28;20482;-60
2022/11/29 01:51:17;;;;;;;78.27;37.70;;;4.90;99.90;;;;;;6260109;28;20482;-61
2022/11/29 01:54:21;;;;;;;69.70;35.00;;;4.80;99.90;;;;;;6264009;28;20470;-61
2022/11/29 01:57:25;;;;;;;86.03;40.43;;;4.70;99.90;;;;;;6261375;28;20858;-61
2022/11/29 02:00:29;;;;;;;62.93;33.93;;;4.80;99.90;;;;;;6252142;28;20482;-61
2022/11/29 02:03:33;;;;;;;77.70;35.23;;;4.80;99.90;;;;;;6245274;28;20470;-61
2022/11/29 02:06:37;;;;;;;77.43;38.37;;;4.80;99.90;;;;;;6239842;28;20489;-61
2022/11/29 02:09:40;;;;;;;62.00;33.13;;;4.70;99.90;;;;;;6238085;28;20483;-61
2022/11/29 02:12:59;;;;;;;70.53;36.73;;;4.80;99.90;;;;;;6242874;28;20478;-61
2022/11/29 02:16:10;;;;;;;69.17;36.43;;;4.80;99.90;;;;;;6251913;28;20533;-60
2022/11/29 02:19:34;;;;;;;71.60;34.50;;;4.80;99.90;;;;;;6251678;28;20484;-61
2022/11/29 02:22:44;;;;;;;73.93;34.17;;;4.80;99.90;;;;;;6257591;28;20458;-61
2022/11/29 02:26:03;;;;;;;73.73;36.77;;;4.80;99.90;;;;;;6276318;28;20455;-60
2022/11/29 02:29:29;;;;;;;62.30;33.50;;;4.90;99.90;;;;;;6276216;28;20471;-61
2022/11/29 02:33:15;;;;;;;55.17;30.03;;;4.90;99.90;;;;;;6276363;28;20875;-61
2022/11/29 02:36:36;;;;;;;68.60;34.57;;;5.00;99.90;;;;;;6275958;28;20471;-60
2022/11/29 02:39:57;;;;;;;63.20;32.50;;;5.00;99.90;;;;;;6275525;28;20483;-61
2022/11/29 02:43:19;;;;;;;56.70;30.10;;;5.00;99.90;;;;;;6275625;28;20481;-61
2022/11/29 02:46:46;;;;;;;69.57;35.13;;;5.00;99.90;;;;;;6275759;28;20470;-61
2022/11/29 02:50:17;;;;;;;65.80;33.00;;;4.90;99.90;;;;;;6275165;28;21117;-61
2022/11/29 02:53:29;;;;;;;71.70;36.07;;;4.90;99.90;;;;;;6275177;28;20470;-61
2022/11/29 02:56:37;;;;;;;62.13;34.03;;;4.80;99.90;;;;;;6275354;28;20482;-61
2022/11/29 02:59:48;;;;;;;59.97;34.07;;;4.80;99.90;;;;;;6275094;28;20966;-61
2022/11/29 03:03:00;;;;;;;62.83;35.87;;;4.80;99.90;;;;;;6275517;28;20976;-61
2022/11/29 03:06:14;;;;;;;62.10;32.80;;;4.80;99.90;;;;;;6275006;28;20974;-61
2022/11/29 03:09:28;;;;;;;69.87;34.80;;;4.90;99.90;;;;;;6274824;28;20486;-61
2022/11/29 03:12:38;;;;;;;78.07;34.30;;;4.90;99.90;;;;;;6275620;28;20471;-61
2022/11/29 03:15:49;;;;;;;64.67;33.60;;;4.80;99.90;;;;;;6254031;28;20467;-61
2022/11/29 03:19:04;;;;;;;80.93;37.37;;;4.90;99.90;;;;;;6250352;28;20483;-61
2022/11/29 03:22:13;;;;;;;76.33;33.03;;;4.90;99.90;;;;;;6252007;28;20551;-61
2022/11/29 03:25:26;;;;;;;62.47;33.80;;;5.00;99.90;;;;;;6274426;28;20477;-61
2022/11/29 03:28:32;;;;;;;61.60;30.53;;;4.90;99.90;;;;;;6274646;28;20489;-61
2022/11/29 03:31:39;;;;;;;63.30;32.43;;;4.90;99.90;;;;;;6275133;28;20442;-61
2022/11/29 03:34:54;;;;;;;70.53;34.70;;;4.70;99.90;;;;;;6275204;28;20427;-60
2022/11/29 03:38:08;;;;;;;61.73;31.17;;;4.80;99.90;;;;;;6274872;28;20474;-61
2022/11/29 03:41:22;;;;;;;62.57;31.70;;;4.70;99.90;;;;;;6274803;28;20520;-61
2022/11/29 03:44:28;;;;;;;65.83;29.63;;;4.70;99.90;;;;;;6275199;28;20524;-61
2022/11/29 03:47:36;;;;;;;57.43;29.70;;;4.80;99.90;;;;;;6274593;28;20980;-61
2022/11/29 03:50:42;;;;;;;61.37;32.80;;;4.80;99.90;;;;;;6274665;28;20813;-61
2022/11/29 03:53:51;;;;;;;62.07;32.87;;;4.80;99.90;;;;;;6274603;28;20961;-61
2022/11/29 03:56:55;;;;;;;60.30;32.83;;;4.80;99.90;;;;;;6274664;28;20470;-61
2022/11/29 04:00:05;;;;;;;70.40;33.40;;;4.80;99.90;;;;;;6274633;28;20474;-61
2022/11/29 04:03:43;;;;;;;66.00;34.60;;;4.80;99.90;;;;;;6274798;28;21002;-61
2022/11/29 04:07:04;;;;;;;77.43;35.80;;;4.80;99.90;;;;;;6270033;28;20490;-62
2022/11/29 04:10:19;;;;;;;66.60;34.00;;;4.50;99.90;;;;;;6274374;28;20474;-61
2022/11/29 04:13:46;;;;;;;73.50;34.90;;;4.40;99.90;;;;;;6274468;28;20474;-61
2022/11/29 04:17:31;;;;;;;70.60;33.77;;;4.50;99.90;;;;;;6252865;28;20464;-61
2022/11/29 04:21:05;;;;;;;64.93;30.17;;;4.60;99.90;;;;;;6249773;28;20491;-61
2022/11/29 04:24:50;;;;;;;73.63;32.60;;;4.70;99.90;;;;;;6272213;28;20469;-61
2022/11/29 04:28:45;;;;;;;66.10;32.43;;;4.70;99.90;;;;;;6278227;28;20501;-61
2022/11/29 04:32:19;;;;;;;68.30;32.50;;;4.70;99.90;;;;;;6279264;28;20477;-61
2022/11/29 04:35:38;;;;;;;52.10;27.50;;;4.80;99.90;;;;;;6274566;28;20872;-60
2022/11/29 04:39:12;;;;;;;53.07;31.10;;;4.80;99.90;;;;;;6278267;28;20470;-61
2022/11/29 04:42:44;;;;;;;56.10;30.83;;;4.80;99.90;;;;;;6278731;28;20539;-61
2022/11/29 04:46:21;;;;;;;62.50;29.93;;;4.80;99.90;;;;;;6278833;28;20477;-61
2022/11/29 04:49:42;;;;;;;54.67;29.93;;;4.90;99.90;;;;;;6275857;28;20955;-61
2022/11/29 04:53:16;;;;;;;58.63;29.57;;;4.90;99.90;;;;;;6278221;28;20454;-61
2022/11/29 04:56:28;;;;;;;64.93;31.47;;;5.00;99.90;;;;;;6277970;28;20455;-61
2022/11/29 04:59:40;;;;;;;61.70;30.00;;;4.90;99.90;;;;;;6277712;28;20839;-61
2022/11/29 05:02:54;;;;;;;65.47;33.73;;;5.00;99.90;;;;;;6278128;28;20866;-61
2022/11/29 05:06:07;;;;;;;72.23;35.87;;;5.00;99.90;;;;;;6278374;28;20474;-61
2022/11/29 05:09:23;;;;;;;61.37;30.77;;;4.90;99.90;;;;;;6278471;28;20478;-61
2022/11/29 05:12:33;;;;;;;57.67;32.63;;;4.90;99.90;;;;;;6278358;28;20487;-61
2022/11/29 05:15:57;;;;;;;65.40;34.10;;;4.90;99.90;;;;;;6266319;28;20475;-61
2022/11/29 05:19:25;;;;;;;62.83;31.20;;;5.00;99.90;;;;;;6253322;28;20503;-61
2022/11/29 05:22:39;;;;;;;50.30;28.60;;;5.00;99.90;;;;;;6257799;28;20450;-61
2022/11/29 05:25:49;;;;;;;60.20;32.10;;;4.90;99.90;;;;;;6277901;28;20434;-61
2022/11/29 05:29:01;;;;;;;57.60;29.40;;;4.90;99.90;;;;;;6277367;28;20779;-61
2022/11/29 05:32:25;;;;;;;60.40;31.37;;;4.90;99.90;;;;;;6277365;28;20775;-61
2022/11/29 05:35:50;;;;;;;54.20;30.07;;;4.90;99.90;;;;;;6277561;28;20489;-61
2022/11/29 05:39:13;;;;;;;66.67;32.67;;;4.90;99.90;;;;;;6277182;28;20499;-61
2022/11/29 05:42:47;;;;;;;61.10;32.57;;;4.70;99.90;;;;;;6277549;28;20996;-60
2022/11/29 05:45:59;;;;;;;64.97;33.47;;;4.70;99.90;;;;;;6277470;28;20475;-61
2022/11/29 05:49:15;;;;;;;61.93;30.87;;;4.60;99.90;;;;;;6277122;28;20474;-61
2022/11/29 05:52:24;;;;;;;60.73;32.50;;;4.60;99.90;;;;;;6276926;28;20471;-61
2022/11/29 05:55:40;;;;;;;73.60;35.30;;;4.70;99.90;;;;;;6276747;28;20431;-61
2022/11/29 05:58:49;;;;;;;61.13;32.20;;;4.70;99.90;;;;;;6276749;28;20427;-61
2022/11/29 06:02:00;;;;;;;64.87;32.50;;;4.80;99.90;;;;;;6276736;28;20474;-61
2022/11/29 06:05:12;;;;;;;65.63;33.97;;;4.90;99.90;;;;;;6276798;28;20475;-61
2022/11/29 06:08:22;;;;;;;60.90;32.33;;;4.90;99.90;;;;;;6276618;28;21031;-60
2022/11/29 06:11:31;;;;;;;65.63;31.30;;;5.00;99.90;;;;;;6276909;28;20854;-61
2022/11/29 06:14:57;;;;;;;72.17;34.37;;;5.00;99.90;;;;;;6273560;28;20797;-61
2022/11/29 06:18:20;;;;;;;69.90;33.93;;;5.10;99.90;;;;;;6252099;28;20829;-61
2022/11/29 06:21:35;;;;;;;67.80;31.60;;;5.20;99.90;;;;;;6251303;28;20534;-61
2022/11/29 06:24:50;;;;;;;69.63;35.67;;;5.20;99.90;;;;;;6273991;28;20474;-61
2022/11/29 06:28:09;;;;;;;74.27;34.07;;;5.20;99.90;;;;;;6276589;28;20493;-60
2022/11/29 06:31:19;;;;;;;66.23;33.20;;;5.30;99.90;;;;;;6275773;28;20985;-60
2022/11/29 06:34:29;;;;;;;60.97;31.90;;;5.30;99.90;;;;;;6275859;28;20608;-61
2022/11/29 06:37:38;;;;;;;51.83;30.53;;;5.40;99.90;;;;;;6275979;28;20446;-61
2022/11/29 06:40:42;;;;;;;60.37;31.80;;;5.50;99.90;;;;;;6275725;28;20494;-61
2022/11/29 06:43:47;;;;;;;57.73;30.23;;;5.50;99.90;;;;;;6275831;28;20537;-61
2022/11/29 06:46:58;;;;;;;63.70;32.87;;;5.50;99.90;;;;;;6275115;28;20493;-61
2022/11/29 06:50:13;;;;;;;55.73;28.20;;;5.50;99.90;;;;;;6275585;28;20488;-61
2022/11/29 06:53:23;;;;;;;66.30;31.27;;;5.50;99.90;;;;;;6276147;28;20466;-60
2022/11/29 06:56:34;;;;;;;56.30;30.47;;;5.60;99.90;;;;;;6280240;28;20463;-61
2022/11/29 06:59:49;;;;;;;56.37;32.50;;;5.60;99.90;;;;;;6279284;28;20478;-61
2022/11/29 07:03:10;;;;;;;53.17;28.53;;;5.60;99.90;;;;;;6276159;28;20469;-59
2022/11/29 07:06:18;;;;;;;57.17;28.47;;;5.60;99.90;;;;;;6276180;28;20498;-60
2022/11/29 07:09:28;;;;;;;54.13;29.97;;;5.60;99.90;;;;;;6275075;28;20974;-60
2022/11/29 07:12:31;;;;;;;50.40;27.90;;;5.60;99.90;;;;;;6274787;28;20966;-60
2022/11/29 07:15:38;;;;;;;53.80;28.10;;;5.60;99.90;;;;;;6263545;28;20482;-60
2022/11/29 07:18:49;;;;;;;51.57;30.10;;;5.70;99.90;;;;;;6250337;28;20467;-61
2022/11/29 07:22:01;;;;;;;47.50;27.60;;;5.70;99.90;;;;;;6250136;28;20979;-60
2022/11/29 07:25:17;;;;;;;44.20;24.73;;;5.80;99.90;;;;;;6274999;28;20778;-60
2022/11/29 07:28:38;;;;;;;47.30;26.80;;;5.80;99.90;;;;;;6274968;28;20479;-60
2022/11/29 07:31:54;;;;;;;43.57;25.73;;;5.90;99.90;;;;;;6273574;28;20500;-60
2022/11/29 07:35:04;;;;;;;43.00;27.37;;;5.90;99.90;;;;;;6239500;28;20796;-60
2022/11/29 07:38:16;;;;;;;44.20;26.87;;;5.80;99.90;;;;;;6237781;28;20472;-60
2022/11/29 07:41:27;;;;;;;46.00;27.70;;;5.80;99.90;;;;;;6236227;28;20468;-60
2022/11/29 07:44:38;;;;;;;45.37;27.10;;;5.80;99.90;;;;;;6247399;28;20477;-60
2022/11/29 07:47:43;;;;;;;45.73;28.60;;;5.80;99.90;;;;;;6258306;28;20486;-60
2022/11/29 07:50:47;;;;;;;47.73;27.27;;;5.80;99.90;;;;;;6274229;28;20474;-61
2022/11/29 07:53:50;;;;;;;47.20;26.80;;;5.80;99.90;;;;;;6274695;28;20466;-60
2022/11/29 07:56:53;;;;;;;51.77;26.73;;;5.80;99.90;;;;;;6277175;28;20512;-60
2022/11/29 07:59:56;;;;;;;50.90;27.70;;;5.80;99.90;;;;;;6280068;28;20481;-60
2022/11/29 08:03:01;;;;;;;44.63;26.10;;;5.90;99.90;;;;;;6279746;28;20493;-60
2022/11/29 08:06:04;;;;;;;40.43;25.27;;;5.90;99.90;;;;;;6280008;28;20473;-60
2022/11/29 08:09:07;;;;;;;46.80;24.83;;;6.00;99.90;;;;;;6279698;28;20470;-61
2022/11/29 08:12:10;;;;;;;42.80;25.00;;;6.00;99.90;;;;;;6279505;28;20988;-60
2022/11/29 08:15:14;;;;;;;44.63;29.53;;;6.00;99.90;;;;;;6270468;28;20947;-60
2022/11/29 08:18:18;;;;;;;39.43;24.77;;;6.10;99.90;;;;;;6254607;28;20809;-60
2022/11/29 08:21:21;;;;;;;46.33;27.87;;;6.10;99.90;;;;;;6256138;28;20479;-60
2022/11/29 08:24:25;;;;;;;42.67;25.63;;;6.10;99.90;;;;;;6267892;28;20974;-60
2022/11/29 08:27:29;;;;;;;43.83;26.53;;;6.00;99.90;;;;;;6265159;28;20477;-60
2022/11/29 08:30:32;;;;;;;49.97;27.50;;;6.00;99.90;;;;;;6261944;28;20470;-60
2022/11/29 08:33:37;;;;;;;43.90;27.60;;;6.00;99.90;;;;;;6260884;28;20748;-60
2022/11/29 08:36:40;;;;;;;50.37;26.00;;;6.00;99.90;;;;;;6265224;28;20474;-60
2022/11/29 08:39:44;;;;;;;40.10;25.23;;;5.70;99.90;;;;;;6266532;28;20486;-61
2022/11/29 08:42:47;;;;;;;43.33;27.23;;;5.60;99.90;;;;;;6264431;28;20485;-60
2022/11/29 08:45:52;;;;;;;37.80;26.30;;;5.70;99.90;;;;;;6267479;28;20470;-61
2022/11/29 08:48:56;;;;;;;46.50;26.47;;;5.70;99.90;;;;;;6273552;28;20512;-61
2022/11/29 08:55:17;;;;;;;38.53;24.53;;;5.80;99.90;;;;;;6263258;28;20482;-61
2022/11/29 08:58:20;;;;;;;45.10;27.60;;;5.80;99.90;;;;;;6264080;28;20973;-61
2022/11/29 09:01:24;;;;;;;37.73;23.53;;;5.80;99.90;;;;;;6265192;28;20478;-61
2022/11/29 09:04:28;;;;;;;42.80;26.63;;;5.90;99.90;;;;;;6271522;28;20782;-61
2022/11/29 09:07:31;;;;;;;43.63;25.43;;;6.00;99.90;;;;;;6269221;28;20448;-61
2022/11/29 09:10:35;;;;;;;42.20;26.07;;;6.00;99.90;;;;;;6255298;28;20463;-61
2022/11/29 09:13:38;;;;;;;40.17;25.03;;;6.10;99.90;;;;;;6254320;28;20451;-61
2022/11/29 09:16:41;;;;;;;44.80;27.80;;;6.10;99.90;;;;;;6253659;28;20451;-61
2022/11/29 09:19:46;;;;;;;42.83;26.80;;;6.20;99.90;;;;;;6261513;28;20599;-61
2022/11/29 09:22:49;;;;;;;44.70;27.83;;;6.30;99.90;;;;;;6267294;28;20455;-61
2022/11/29 09:25:53;;;;;;;41.53;27.87;;;6.30;99.90;;;;;;6264628;28;20551;-61
2022/11/29 09:28:56;;;;;;;43.30;25.47;;;6.40;99.90;;;;;;6264625;28;20478;-61
2022/11/29 09:31:59;;;;;;;41.67;25.57;;;6.40;99.90;;;;;;6253075;28;20973;-61
2022/11/29 09:35:04;;;;;;;40.20;25.80;;;6.40;99.90;;;;;;6248723;28;20467;-61
2022/11/29 09:38:07;;;;;;;40.77;26.13;;;6.50;99.90;;;;;;6253078;28;20970;-61
2022/11/29 09:41:27;;;;;;;42.23;27.97;;;6.40;99.90;;;;;;6252475;28;20479;-61
2022/11/29 09:44:40;;;;;;;41.70;24.90;;;6.50;99.90;;;;;;6252978;28;20472;-61
2022/11/29 09:48:01;;;;;;;42.63;25.10;;;6.50;99.90;;;;;;6252567;28;20537;-59
2022/11/29 09:51:16;;;;;;;42.13;25.37;;;6.50;99.90;;;;;;6252697;28;20472;-59
2022/11/29 09:54:29;;;;;;;45.27;26.23;;;6.50;99.90;;;;;;6252289;28;20483;-60
2022/11/29 09:57:33;;;;;;;47.50;27.00;;;6.50;99.90;;;;;;6252463;28;20955;-60
2022/11/29 10:00:41;;;;;;;46.83;27.47;;;6.50;99.90;;;;;;6251897;28;20483;-59
2022/11/29 10:03:50;;;;;;;41.57;25.13;;;6.30;99.90;;;;;;6252002;28;20464;-59
2022/11/29 10:07:01;;;;;;;46.13;27.10;;;6.30;99.90;;;;;;6251721;28;20467;-59
2022/11/29 10:10:09;;;;;;;42.20;26.37;;;6.40;99.90;;;;;;6251180;28;20498;-59
2022/11/29 10:13:18;;;;;;;43.13;27.90;;;6.40;99.90;;;;;;6252131;28;20541;-60
2022/11/29 10:16:38;;;;;;;53.73;28.07;;;6.40;99.90;;;;;;6259268;28;20468;-59
2022/11/29 10:19:45;;;;;;;43.63;26.70;;;6.30;99.90;;;;;;6230830;28;20514;-59
2022/11/29 10:22:54;;;;;;;47.20;26.70;;;6.30;99.90;;;;;;6265136;28;20455;-58
2022/11/29 10:25:58;;;;;;;45.77;28.43;;;6.30;99.90;;;;;;6259854;28;20466;-59
2022/11/29 10:29:02;;;;;;;45.27;26.23;;;6.40;99.90;;;;;;6251578;28;20486;-58
2022/11/29 10:32:13;;;;;;;49.77;27.93;;;6.30;99.90;;;;;;6264099;28;20962;-58
2022/11/29 10:35:19;;;;;;;51.10;26.70;;;6.40;99.90;;;;;;6256505;28;20482;-58
2022/11/29 10:38:23;;;;;;;43.53;27.20;;;6.50;99.90;;;;;;6258845;28;20470;-58
2022/11/29 10:41:35;;;;;;;42.80;27.13;;;6.40;99.90;;;;;;6272619;28;20473;-58
2022/11/29 10:44:38;;;;;;;42.70;25.33;;;6.40;99.90;;;;;;6269854;28;20478;-59
2022/11/29 10:47:41;;;;;;;47.17;26.73;;;6.30;99.90;;;;;;6258859;28;20479;-59
2022/11/29 10:50:47;;;;;;;44.30;25.77;;;6.20;99.90;;;;;;6250480;28;20471;-59
2022/11/29 10:53:53;;;;;;;44.73;26.43;;;6.20;99.90;;;;;;6250799;28;20467;-59
2022/11/29 10:56:58;;;;;;;38.87;23.70;;;5.90;99.90;;;;;;6250258;28;20486;-58
2022/11/29 11:00:06;;;;;;;44.20;24.50;;;5.80;99.90;;;;;;6250120;28;20471;-58
2022/11/29 11:03:17;;;;;;;40.70;25.73;;;5.80;99.90;;;;;;6250740;28;20480;-59
2022/11/29 11:06:22;;;;;;;44.17;27.50;;;5.80;99.90;;;;;;6250446;28;20476;-59
2022/11/29 11:09:31;;;;;;;40.10;25.67;;;5.90;99.90;;;;;;6250396;28;20475;-59
2022/11/29 11:12:36;;;;;;;39.17;25.67;;;6.00;99.90;;;;;;6250196;28;20471;-59
2022/11/29 11:15:40;;;;;;;39.00;24.03;;;6.10;99.90;;;;;;6238720;28;20766;-59
2022/11/29 11:18:43;;;;;;;41.03;25.10;;;6.40;99.90;;;;;;6225854;28;20468;-59
2022/11/29 11:21:47;;;;;;;48.77;27.40;;;6.30;99.90;;;;;;6225769;28;20491;-59
2022/11/29 11:24:59;;;;;;;35.10;24.27;;;6.10;99.90;;;;;;6274438;28;20474;-59
2022/11/29 11:28:16;;;;;;;40.10;25.07;;;6.10;99.90;;;;;;6274638;28;20482;-59
2022/11/29 11:31:28;;;;;;;40.90;25.40;;;6.00;99.90;;;;;;6267231;28;20483;-58
2022/11/29 11:34:33;;;;;;;39.97;24.87;;;5.90;99.90;;;;;;6258872;28;20459;-58
2022/11/29 11:37:37;;;;;;;42.47;26.60;;;5.90;99.90;;;;;;6262935;28;20431;-58
2022/11/29 11:40:41;;;;;;;38.03;23.47;;;5.90;99.90;;;;;;6261193;28;20481;-58
2022/11/29 11:43:55;;;;;;;41.27;23.87;;;5.80;99.90;;;;;;6251806;28;20927;-58
2022/11/29 11:47:01;;;;;;;44.67;26.13;;;5.90;99.90;;;;;;6255818;28;20472;-57
2022/11/29 11:50:11;;;;;;;41.87;25.00;;;6.00;99.90;;;;;;6238037;28;20468;-58
2022/11/29 11:53:23;;;;;;;37.50;23.53;;;5.90;99.90;;;;;;6250184;28;20960;-58
2022/11/29 11:56:34;;;;;;;40.20;22.20;;;6.00;99.90;;;;;;6274035;28;20478;-58
2022/11/29 11:59:37;;;;;;;38.30;21.40;;;6.00;99.90;;;;;;6254207;28;20479;-57
2022/11/29 12:02:44;;;;;;;35.10;22.97;;;5.80;99.90;;;;;;6243167;28;20537;-58
2022/11/29 12:05:48;;;;;;;33.27;21.53;;;5.80;99.90;;;;;;6260205;28;20506;-58
2022/11/29 12:08:55;;;;;;;37.43;23.57;;;5.80;99.90;;;;;;6261123;28;20467;-58
2022/11/29 12:12:10;;;;;;;36.37;24.50;;;5.80;99.90;;;;;;6253043;28;20483;-58
2022/11/29 12:15:19;;;;;;;35.13;24.10;;;5.60;99.90;;;;;;6249355;28;20467;-58
2022/11/29 12:18:28;;;;;;;37.37;25.23;;;5.50;99.90;;;;;;6261736;28;20478;-58
2022/11/29 12:21:36;;;;;;;42.30;26.37;;;5.20;99.90;;;;;;6262047;28;20814;-58
2022/11/29 12:24:47;;;;;;;44.77;29.10;;;5.30;99.90;;;;;;6267339;28;20489;-59
2022/11/29 12:27:52;;;;;;;47.87;30.47;;;5.40;99.90;;;;;;6264794;28;20806;-58
2022/11/29 12:31:06;;;;;;;46.93;27.37;;;5.50;99.90;;;;;;6250975;28;20494;-58
2022/11/29 12:34:23;;;;;;;47.77;30.87;;;5.60;99.90;;;;;;6249191;28;20479;-59
2022/11/29 12:37:34;;;;;;;36.00;24.33;;;5.70;99.90;;;;;;6249197;28;20436;-59
2022/11/29 12:40:43;;;;;;;45.57;27.97;;;5.70;99.90;;;;;;6249190;28;20479;-59
2022/11/29 12:43:58;;;;;;;45.23;27.63;;;5.80;99.90;;;;;;6251125;28;20471;-60
2022/11/29 12:47:13;;;;;;;45.07;26.43;;;5.80;99.90;;;;;;6249220;28;20475;-58
2022/11/29 12:50:48;;;;;;;41.73;27.50;;;5.70;99.90;;;;;;6253231;28;20491;-58
2022/11/29 12:54:13;;;;;;;44.07;28.70;;;5.80;99.90;;;;;;6253426;28;20475;-58
2022/11/29 12:57:27;;;;;;;40.80;28.20;;;5.90;99.90;;;;;;6252230;28;20860;-58
2022/11/29 13:00:41;;;;;;;34.00;24.03;;;6.00;99.90;;;;;;6252902;28;20739;-59
2022/11/29 13:03:54;;;;;;;37.33;23.63;;;6.00;99.90;;;;;;6252941;28;20975;-59
2022/11/29 13:07:06;;;;;;;42.47;26.10;;;6.10;99.90;;;;;;6252655;28;20481;-58
2022/11/29 13:10:29;;;;;;;38.80;24.07;;;6.20;99.90;;;;;;6262335;28;20565;-58
2022/11/29 13:13:38;;;;;;;39.90;23.13;;;6.40;99.90;;;;;;6265869;28;20520;-58
2022/11/29 13:16:51;;;;;;;35.03;21.87;;;6.50;99.90;;;;;;6257664;28;20444;-58
2022/11/29 13:19:57;;;;;;;32.07;20.93;;;6.70;99.90;;;;;;6252884;28;20529;-58
2022/11/29 13:23:13;;;;;;;37.70;23.57;;;6.60;99.90;;;;;;6262381;28;20478;-58
2022/11/29 13:26:17;;;;;;;36.97;23.77;;;6.30;99.90;;;;;;6277556;28;20786;-58
2022/11/29 13:29:21;;;;;;;35.20;23.17;;;6.40;99.90;;;;;;6277336;28;20473;-58
2022/11/29 13:32:35;;;;;;;35.97;24.37;;;6.40;99.90;;;;;;6280253;28;20470;-58
2022/11/29 13:35:46;;;;;;;36.00;22.60;;;6.40;99.90;;;;;;6277210;28;20990;-58
2022/11/29 13:39:02;;;;;;;35.80;25.90;;;6.50;99.90;;;;;;6276273;28;20809;-58
2022/11/29 13:42:12;;;;;;;35.70;25.70;;;6.40;99.90;;;;;;6270173;28;20481;-57
2022/11/29 13:45:21;;;;;;;38.10;26.10;;;6.20;99.90;;;;;;6273433;28;20478;-58
2022/11/29 13:48:45;;;;;;;33.27;21.13;;;6.10;99.90;;;;;;6277169;28;20536;-60
2022/11/29 13:51:55;;;;;;;33.00;22.37;;;6.10;99.90;;;;;;6266882;28;20480;-59
2022/11/29 13:55:22;;;;;;;37.43;23.60;;;5.90;99.90;;;;;;6252186;28;20475;-58
2022/11/29 13:58:35;;;;;;;33.40;21.80;;;5.60;99.90;;;;;;6251838;28;20478;-59
2022/11/29 14:01:47;;;;;;;33.50;22.40;;;5.60;99.90;;;;;;6252175;28;20447;-59
2022/11/29 14:04:52;;;;;;;37.43;23.43;;;5.70;99.90;;;;;;6251900;28;20467;-58
2022/11/29 14:08:24;;;;;;;30.30;21.30;;;5.80;99.90;;;;;;6251625;28;20970;-59
2022/11/29 14:11:31;;;;;;;31.37;21.10;;;5.90;99.90;;;;;;6252042;28;20471;-59
2022/11/29 14:14:47;;;;;;;27.53;20.33;;;6.00;99.90;;;;;;6252202;28;20467;-59
2022/11/29 14:17:53;;;;;;;30.10;19.67;;;6.00;99.90;;;;;;6251103;28;20481;-59
2022/11/29 14:21:00;;;;;;;30.87;20.90;;;6.00;99.90;;;;;;6251882;28;20463;-59
2022/11/29 14:24:37;;;;;;;32.53;21.17;;;5.90;99.90;;;;;;6269125;28;20470;-59
2022/11/29 14:28:02;;;;;;;26.33;19.40;;;6.10;99.90;;;;;;6276032;28;20478;-58
2022/11/29 14:31:06;;;;;;;26.57;17.80;;;6.10;99.90;;;;;;6268410;28;20478;-58
2022/11/29 14:34:15;;;;;;;31.53;19.57;;;6.20;99.90;;;;;;6261663;28;20476;-59
2022/11/29 14:37:47;;;;;;;27.77;19.30;;;6.20;99.90;;;;;;6251405;28;20486;-59
2022/11/29 14:40:56;;;;;;;30.67;20.03;;;6.30;99.90;;;;;;6250855;28;20474;-59
2022/11/29 14:44:15;;;;;;;35.43;24.00;;;6.30;99.90;;;;;;6253305;28;20475;-59
2022/11/29 14:47:30;;;;;;;29.27;20.33;;;6.30;99.90;;;;;;6269379;28;20482;-59
2022/11/29 14:50:36;;;;;;;29.47;20.00;;;6.30;99.90;;;;;;6273106;28;20490;-59
2022/11/29 14:53:43;;;;;;;26.70;19.50;;;6.30;99.90;;;;;;6244041;28;20973;-59
2022/11/29 14:56:47;;;;;;;27.23;18.60;;;6.30;99.90;;;;;;6250220;28;20490;-59
2022/11/29 14:59:53;;;;;;;32.67;22.63;;;6.40;99.90;;;;;;6249709;28;20950;-59
2022/11/29 15:03:01;;;;;;;31.73;22.33;;;6.40;99.90;;;;;;6250434;28;20475;-59
2022/11/29 15:06:15;;;;;;;27.60;19.33;;;6.40;99.90;;;;;;6249805;28;20478;-58
2022/11/29 15:09:22;;;;;;;26.03;19.13;;;6.50;99.90;;;;;;6249872;28;20474;-58
2022/11/29 15:12:30;;;;;;;25.20;18.03;;;6.50;99.90;;;;;;6249888;28;20481;-59
2022/11/29 15:15:50;;;;;;;30.63;19.33;;;6.40;99.90;;;;;;6249650;28;20851;-58
2022/11/29 15:19:26;;;;;;;30.70;20.13;;;6.40;99.90;;;;;;6249773;28;20498;-58
2022/11/29 15:22:41;;;;;;;29.63;20.30;;;6.30;99.90;;;;;;6254609;28;20469;-60
2022/11/29 15:25:50;;;;;;;27.70;19.67;;;6.30;99.90;;;;;;6274576;28;20426;-59
2022/11/29 15:28:53;;;;;;;30.27;19.70;;;6.30;99.90;;;;;;6276757;28;20490;-59
2022/11/29 15:31:59;;;;;;;32.00;20.73;;;6.30;99.90;;;;;;6275245;28;20809;-58
2022/11/29 15:35:04;;;;;;;34.20;20.97;;;6.30;99.90;;;;;;6274846;28;20477;-58
2022/11/29 15:38:17;;;;;;;29.63;20.63;;;6.40;99.90;;;;;;6274269;28;20922;-59
2022/11/29 15:41:27;;;;;;;35.70;21.53;;;6.40;99.90;;;;;;6274348;28;20478;-59
2022/11/29 15:44:32;;;;;;;26.90;19.80;;;6.40;99.90;;;;;;6274885;28;20467;-58
2022/11/29 15:47:35;;;;;;;32.50;21.67;;;6.40;99.90;;;;;;6276530;28;20478;-59
2022/11/29 15:50:40;;;;;;;28.30;21.23;;;6.40;99.90;;;;;;6275269;28;20482;-58
2022/11/29 15:53:46;;;;;;;28.10;21.53;;;6.40;99.90;;;;;;6250707;28;20471;-58
2022/11/29 15:56:54;;;;;;;26.90;19.60;;;6.50;99.90;;;;;;6250665;28;20490;-58
2022/11/29 16:00:01;;;;;;;27.23;18.87;;;6.50;99.90;;;;;;6245566;28;20811;-59
2022/11/29 16:03:07;;;;;;;25.93;18.70;;;6.40;99.90;;;;;;6250239;28;20482;-59
2022/11/29 16:06:23;;;;;;;28.57;19.37;;;6.40;99.90;;;;;;6249468;28;20788;-59
2022/11/29 16:09:31;;;;;;;27.77;19.03;;;6.40;99.90;;;;;;6249928;28;20475;-59
2022/11/29 16:12:35;;;;;;;26.30;17.60;;;6.40;99.90;;;;;;6249320;28;20529;-59
2022/11/29 16:15:40;;;;;;;29.57;19.57;;;6.40;99.90;;;;;;6249346;28;20472;-59
2022/11/29 16:18:45;;;;;;;29.50;19.00;;;6.30;99.90;;;;;;6253092;28;20471;-59
2022/11/29 16:22:00;;;;;;;26.77;18.43;;;6.30;99.90;;;;;;6254364;28;20487;-58